createdAt,value
2022-10-15T00:00:00.248Z,37.7
2022-10-15T00:05:00.248Z,33.2
2022-10-15T00:10:00.213Z,38.0
2022-10-15T00:15:00.222Z,32.6
2022-10-15T00:20:00.261Z,34.6
2022-10-15T00:25:00.259Z,36.8
2022-10-15T00:30:00.242Z,40.8
2022-10-15T00:35:00.282Z,41.4
2022-10-15T00:40:00.267Z,36.8
2022-10-15T00:45:00.234Z,39.2
2022-10-15T00:50:00.228Z,40.8
2022-10-15T00:55:00.228Z,36.6
2022-10-15T01:00:00.312Z,34.5
2022-10-15T01:05:00.272Z,40.1
2022-10-15T01:10:00.261Z,39.5
2022-10-15T01:15:00.216Z,37.5
2022-10-15T01:20:00.271Z,41.0
2022-10-15T01:25:00.208Z,35.9
2022-10-15T01:30:00.374Z,39.8
2022-10-15T01:35:00.295Z,40.1
2022-10-15T01:40:00.268Z,37.5
2022-10-15T01:45:00.228Z,36.7
2022-10-15T01:50:00.213Z,34.4
2022-10-15T01:55:00.232Z,40.9
2022-10-15T02:00:00.272Z,37.6
2022-10-15T02:05:00.233Z,39.4
2022-10-15T02:10:00.241Z,42.3
2022-10-15T02:15:00.212Z,44.3
2022-10-15T02:20:00.510Z,41.9
2022-10-15T02:25:00.222Z,38.4
2022-10-15T02:30:00.240Z,41.0
2022-10-15T02:35:00.227Z,38.7
2022-10-15T02:40:00.308Z,42.4
2022-10-15T02:45:00.237Z,42.8
2022-10-15T02:50:00.249Z,48.1
2022-10-15T02:55:00.267Z,43.0
2022-10-15T03:00:00.348Z,49.2
2022-10-15T03:05:00.227Z,45.6
2022-10-15T03:10:00.234Z,44.5
2022-10-15T03:15:00.243Z,48.7
2022-10-15T03:20:00.219Z,47.9
2022-10-15T03:25:00.230Z,50.1
2022-10-15T03:30:00.278Z,49.9
2022-10-15T03:35:00.246Z,48.5
2022-10-15T03:40:00.295Z,45.5
2022-10-15T03:45:00.243Z,46.7
2022-10-15T03:50:00.245Z,48.8
2022-10-15T03:55:00.275Z,43.9
2022-10-15T04:00:00.286Z,54.3
2022-10-15T04:05:00.246Z,50.4
2022-10-15T04:10:00.235Z,48.4
2022-10-15T04:15:00.250Z,46.0
2022-10-15T04:20:00.232Z,50.7
2022-10-15T04:25:00.304Z,51.5
2022-10-15T04:30:00.249Z,50.3
2022-10-15T04:35:00.321Z,50.0
2022-10-15T04:40:00.237Z,53.2
2022-10-15T04:45:00.616Z,52.5
2022-10-15T04:50:00.279Z,48.6
2022-10-15T04:55:00.233Z,51.7
2022-10-15T05:00:00.279Z,53.4
2022-10-15T05:05:00.227Z,51.6
2022-10-15T05:10:00.224Z,51.1
2022-10-15T05:15:00.283Z,61.0
2022-10-15T05:20:00.238Z,56.5
2022-10-15T05:25:00.234Z,55.6
2022-10-15T05:30:00.244Z,54.1
2022-10-15T05:35:00.191Z,46.0
2022-10-15T05:40:00.217Z,51.6
2022-10-15T05:45:00.238Z,45.3
2022-10-15T05:50:00.233Z,55.5
2022-10-15T05:55:00.242Z,52.5
2022-10-15T06:00:00.351Z,48.2
2022-10-15T06:05:00.288Z,56.4
2022-10-15T06:10:00.270Z,56.7
2022-10-15T06:15:00.255Z,51.5
2022-10-15T06:20:00.271Z,50.8
2022-10-15T06:25:00.274Z,60.4
2022-10-15T06:30:00.266Z,49.7
2022-10-15T06:35:00.260Z,65.1
2022-10-15T06:40:00.254Z,50.3
2022-10-15T06:45:00.231Z,64.4
2022-10-15T06:50:00.256Z,72.6
2022-10-15T06:55:00.264Z,66.6
2022-10-15T07:00:00.311Z,58.3
2022-10-15T07:05:00.269Z,53.4
2022-10-15T07:10:00.257Z,43.9
2022-10-15T07:15:00.255Z,45.0
2022-10-15T07:20:00.262Z,44.9
2022-10-15T07:25:00.258Z,40.6
2022-10-15T07:30:00.335Z,42.9
2022-10-15T07:35:00.276Z,38.5
2022-10-15T07:40:00.259Z,37.4
2022-10-15T07:45:00.273Z,37.3
2022-10-15T07:50:00.282Z,36.9
2022-10-15T07:55:00.283Z,33.3
2022-10-15T08:00:00.324Z,33.3
2022-10-15T08:05:00.790Z,26.5
2022-10-15T08:10:00.266Z,30.4
2022-10-15T08:15:00.456Z,28.3
2022-10-15T08:20:00.258Z,27.8
2022-10-15T08:25:00.338Z,25.0
2022-10-15T08:30:00.335Z,25.8
2022-10-15T08:35:00.261Z,23.9
2022-10-15T08:40:00.265Z,24.1
2022-10-15T08:45:00.275Z,24.8
2022-10-15T08:50:00.299Z,24.3
2022-10-15T08:55:00.272Z,25.0
2022-10-15T09:00:00.347Z,27.3
2022-10-15T09:05:00.355Z,25.4
2022-10-15T09:10:00.322Z,28.3
2022-10-15T09:15:00.314Z,30.9
2022-10-15T09:20:00.505Z,26.7
2022-10-15T09:25:00.362Z,30.7
2022-10-15T09:30:00.580Z,26.2
2022-10-15T09:35:00.583Z,23.6
2022-10-15T09:40:00.408Z,21.2
2022-10-15T09:45:00.444Z,18.8
2022-10-15T09:50:00.448Z,19.6
2022-10-15T09:55:05.410Z,18.1
2022-10-15T10:00:00.395Z,18.2
2022-10-15T10:05:01.565Z,17.4
2022-10-15T10:10:00.291Z,16.1
2022-10-15T10:15:00.279Z,13.6
2022-10-15T10:20:00.307Z,13.7
2022-10-15T10:25:00.344Z,14.1
2022-10-15T10:30:00.274Z,14.7
2022-10-15T10:35:00.282Z,15.6
2022-10-15T10:40:00.356Z,14.2
2022-10-15T10:45:00.285Z,15.6
2022-10-15T10:50:00.244Z,17.2
2022-10-15T10:55:00.278Z,15.7
2022-10-15T11:00:00.473Z,15.9
2022-10-15T11:05:00.301Z,15.4
2022-10-15T11:10:00.287Z,15.2
2022-10-15T11:15:00.273Z,13.2
2022-10-15T11:20:21.440Z,16.4
2022-10-15T11:25:07.133Z,15.0
2022-10-15T11:30:00.325Z,14.5
2022-10-15T11:35:00.252Z,12.9
2022-10-15T11:40:00.284Z,13.4
2022-10-15T11:45:00.285Z,13.6
2022-10-15T11:50:00.290Z,10.7
2022-10-15T11:55:00.306Z,8.6
2022-10-15T12:00:00.289Z,9.6
2022-10-15T12:05:00.269Z,11.3
2022-10-15T12:10:00.321Z,9.0
2022-10-15T12:15:00.248Z,9.1
2022-10-15T12:20:00.274Z,9.4
2022-10-15T12:25:00.326Z,8.3
2022-10-15T12:30:00.347Z,8.1
2022-10-15T12:35:00.266Z,7.5
2022-10-15T12:40:00.282Z,7.5
2022-10-15T12:45:00.352Z,8.8
2022-10-15T12:50:00.263Z,6.4
2022-10-15T12:55:02.643Z,7.1
2022-10-15T13:00:00.367Z,5.2
2022-10-15T13:05:00.281Z,5.9
2022-10-15T13:10:00.273Z,6.1
2022-10-15T13:15:00.252Z,5.5
2022-10-15T13:20:00.273Z,7.1
2022-10-15T13:25:00.272Z,7.3
2022-10-15T13:30:00.503Z,0.0
2022-10-15T13:35:00.272Z,6.1
2022-10-15T13:40:03.240Z,7.7
2022-10-15T13:45:00.274Z,6.4
2022-10-15T13:50:00.288Z,9.0
2022-10-15T13:55:00.276Z,7.1
2022-10-15T14:00:00.367Z,6.3
2022-10-15T14:05:00.387Z,6.1
2022-10-15T14:10:00.356Z,6.8
2022-10-15T14:15:00.339Z,7.6
2022-10-15T14:25:00.420Z,7.8
2022-10-15T14:30:00.374Z,6.8
2022-10-15T14:35:00.369Z,6.8
2022-10-15T14:40:00.370Z,6.6
2022-10-15T14:45:00.374Z,6.9
2022-10-15T14:50:00.335Z,7.3
2022-10-15T14:55:00.301Z,7.5
2022-10-15T15:00:00.407Z,12.3
2022-10-15T15:05:00.273Z,11.6
2022-10-15T15:10:00.281Z,8.1
2022-10-15T15:15:00.269Z,8.8
2022-10-15T15:20:00.359Z,8.6
2022-10-15T15:25:00.310Z,6.9
2022-10-15T15:30:00.281Z,7.1
2022-10-15T15:35:00.288Z,8.3
2022-10-15T15:40:00.278Z,5.9
2022-10-15T15:45:00.306Z,5.4
2022-10-15T15:50:00.268Z,0.0
2022-10-15T15:55:00.288Z,5.8
2022-10-15T16:00:00.433Z,5.5
2022-10-15T16:05:00.306Z,5.0
2022-10-15T16:10:00.240Z,6.0
2022-10-15T16:15:00.312Z,8.6
2022-10-15T16:20:00.285Z,7.0
2022-10-15T16:25:00.297Z,8.4
2022-10-15T16:30:00.363Z,7.3
2022-10-15T16:35:00.405Z,6.5
2022-10-15T16:40:00.281Z,6.2
2022-10-15T16:45:00.309Z,4.5
2022-10-15T16:50:00.275Z,7.2
2022-10-15T16:55:00.262Z,6.0
2022-10-15T17:00:00.350Z,5.5
2022-10-15T17:05:00.310Z,7.0
2022-10-15T17:10:00.693Z,8.6
2022-10-15T17:15:00.279Z,8.5
2022-10-15T17:20:00.391Z,7.0
2022-10-15T17:25:00.289Z,7.1
2022-10-15T17:30:00.430Z,8.7
2022-10-15T17:35:03.853Z,13.5
2022-10-15T17:40:00.528Z,8.0
2022-10-15T17:45:00.310Z,6.9
2022-10-15T17:50:00.412Z,7.3
2022-10-15T17:55:00.291Z,6.3
2022-10-15T18:00:00.445Z,6.2
2022-10-15T18:05:00.452Z,8.1
2022-10-15T18:10:00.299Z,6.7
2022-10-15T18:15:00.285Z,11.3
2022-10-15T18:20:00.278Z,8.0
2022-10-15T18:25:00.270Z,7.4
2022-10-15T18:30:00.279Z,6.1
2022-10-15T18:35:00.278Z,8.9
2022-10-15T18:40:00.339Z,11.5
2022-10-15T18:45:00.313Z,6.3
2022-10-15T18:50:00.282Z,8.9
2022-10-15T18:55:00.288Z,8.4
2022-10-15T19:00:00.307Z,6.5
2022-10-15T19:05:00.295Z,9.3
2022-10-15T19:10:00.274Z,9.1
2022-10-15T19:15:00.240Z,8.3
2022-10-15T19:20:00.369Z,7.0
2022-10-15T19:25:00.356Z,6.4
2022-10-15T19:30:00.448Z,6.2
2022-10-15T19:35:00.319Z,6.9
2022-10-15T19:40:00.362Z,7.1
2022-10-15T19:45:00.291Z,6.1
2022-10-15T19:50:00.378Z,7.5
2022-10-15T19:55:00.344Z,8.2
2022-10-15T20:00:00.354Z,7.1
2022-10-15T20:05:00.284Z,7.7
2022-10-15T20:10:00.394Z,9.4
2022-10-15T20:15:01.470Z,7.8
2022-10-15T20:20:00.289Z,6.8
2022-10-15T20:25:01.383Z,8.5
2022-10-15T20:30:00.617Z,9.4
2022-10-15T20:35:00.280Z,9.4
2022-10-15T20:55:00.375Z,7.0
2022-10-15T21:00:00.419Z,7.0
2022-10-15T21:05:00.728Z,8.5
2022-10-15T21:10:00.718Z,11.0
2022-10-15T21:15:00.815Z,9.7
2022-10-15T21:20:00.362Z,7.5
2022-10-15T21:25:00.672Z,6.5
2022-10-15T21:30:01.136Z,5.4
2022-10-15T21:35:00.490Z,8.2
2022-10-15T21:40:00.420Z,9.9
2022-10-15T21:45:00.515Z,5.9
2022-10-15T21:50:00.309Z,7.5
2022-10-15T21:55:00.300Z,7.9
2022-10-15T22:00:00.387Z,8.0
2022-10-15T22:05:00.498Z,9.6
2022-10-15T22:10:00.883Z,6.8
2022-10-15T22:15:00.768Z,6.5
2022-10-15T22:20:00.564Z,8.4
2022-10-15T22:25:00.282Z,6.6
2022-10-15T22:30:00.353Z,6.8
2022-10-15T22:35:00.296Z,5.6
2022-10-15T22:40:00.291Z,6.0
2022-10-15T22:45:00.313Z,7.4
2022-10-15T22:55:00.307Z,5.4
2022-10-15T23:00:00.320Z,5.9
2022-10-15T23:05:00.309Z,6.6
2022-10-15T23:10:00.279Z,4.6
2022-10-15T23:15:00.280Z,6.5
2022-10-15T23:20:00.309Z,9.7
2022-10-15T23:25:00.297Z,7.4
2022-10-15T23:30:14.763Z,4.4
2022-10-15T23:35:00.289Z,6.8
2022-10-15T23:40:00.362Z,5.8
2022-10-15T23:45:00.325Z,6.8
2022-10-15T23:50:00.284Z,5.1
2022-10-15T23:55:00.440Z,7.9
